createdAt,value
2019-04-22T00:00:06.619Z,47.30
2019-04-22T00:01:05.781Z,47.71
2019-04-22T00:02:10.528Z,47.30
2019-04-22T00:03:10.288Z,48.11
2019-04-22T00:04:11.072Z,47.81
2019-04-22T00:05:17.911Z,47.81
2019-04-22T00:06:27.411Z,48.11
2019-04-22T00:07:28.632Z,47.30
2019-04-22T00:08:31.284Z,47.63
2019-04-22T00:09:30.995Z,47.71
2019-04-22T00:10:32.376Z,47.53
2019-04-22T00:11:46.673Z,47.53
2019-04-22T00:12:34.605Z,47.73
2019-04-22T00:13:37.581Z,47.73
2019-04-22T00:14:26.364Z,48.65
2019-04-22T00:15:29.202Z,47.53
2019-04-22T00:17:40.155Z,47.83
2019-04-22T00:18:52.996Z,47.30
2019-04-22T00:19:35.989Z,47.73
2019-04-22T00:20:30.422Z,48.03
2019-04-22T00:21:31.953Z,48.03
2019-04-22T00:22:32.642Z,47.53
2019-04-22T00:23:31.713Z,47.73
2019-04-22T00:24:30.730Z,47.32
2019-04-22T00:25:34.798Z,47.53
2019-04-22T00:26:37.529Z,48.16
2019-04-22T00:27:34.153Z,47.73
2019-04-22T00:28:33.413Z,47.45
2019-04-22T00:30:25.567Z,47.65
2019-04-22T00:31:28.581Z,47.65
2019-04-22T00:32:32.048Z,47.75
2019-04-22T00:33:34.231Z,48.47
2019-04-22T00:34:30.172Z,48.08
2019-04-22T00:35:33.169Z,48.16
2019-04-22T00:36:28.866Z,47.65
2019-04-22T00:37:31.503Z,48.16
2019-04-22T00:38:31.524Z,47.65
2019-04-22T00:39:37.151Z,47.75
2019-04-22T00:40:34.136Z,47.55
2019-04-22T00:41:31.571Z,48.36
2019-04-22T00:42:34.881Z,48.16
2019-04-22T00:43:33.355Z,47.65
2019-04-22T00:44:35.333Z,47.55
2019-04-22T00:45:34.469Z,47.55
2019-04-22T00:46:36.141Z,47.57
2019-04-22T00:47:32.190Z,48.36
2019-04-22T00:48:53.439Z,48.67
2019-04-22T00:50:06.601Z,48.80
2019-04-22T00:50:31.714Z,49.21
2019-04-22T00:51:36.445Z,48.92
2019-04-22T00:52:28.274Z,49.13
2019-04-22T00:53:31.313Z,49.13
2019-04-22T00:54:31.115Z,49.02
2019-04-22T00:55:34.260Z,49.13
2019-04-22T00:56:28.228Z,48.72
2019-04-22T00:57:29.606Z,49.13
2019-04-22T00:58:33.882Z,48.92
2019-04-22T00:59:29.678Z,49.33
2019-04-22T01:00:31.500Z,49.22
2019-04-22T01:01:50.173Z,49.33
2019-04-22T01:02:34.427Z,49.13
2019-04-22T01:03:38.704Z,49.22
2019-04-22T01:04:34.999Z,49.22
2019-04-22T01:05:34.448Z,48.92
2019-04-22T01:06:25.762Z,49.02
2019-04-22T01:07:30.147Z,48.92
2019-04-22T01:08:33.929Z,49.54
2019-04-22T01:09:37.036Z,49.35
2019-04-22T01:10:31.727Z,49.76
2019-04-22T01:11:32.303Z,49.87
2019-04-22T01:12:31.957Z,50.27
2019-04-22T01:14:29.669Z,50.07
2019-04-22T01:15:35.469Z,50.50
2019-04-22T01:16:30.940Z,50.40
2019-04-22T01:17:25.586Z,51.12
2019-04-22T01:18:32.692Z,50.71
2019-04-22T01:19:36.372Z,50.91
2019-04-22T01:20:58.863Z,51.14
2019-04-22T01:21:36.985Z,50.93
2019-04-22T01:22:27.092Z,51.45
2019-04-22T01:23:28.084Z,51.45
2019-04-22T01:24:27.722Z,50.52
2019-04-22T01:25:26.403Z,51.95
2019-04-22T01:26:20.225Z,51.98
2019-04-22T01:27:22.221Z,51.54
2019-04-22T01:28:21.828Z,52.37
2019-04-22T01:29:17.277Z,51.45
2019-04-22T01:30:19.751Z,51.24
2019-04-22T01:31:09.574Z,52.06
2019-04-22T01:32:13.214Z,52.80
2019-04-22T01:33:14.067Z,52.59
2019-04-22T01:34:21.972Z,52.59
2019-04-22T01:35:18.017Z,52.49
2019-04-22T01:36:24.640Z,52.92
2019-04-22T01:37:23.939Z,53.03
2019-04-22T01:38:23.662Z,53.64
2019-04-22T01:39:31.840Z,54.08
2019-04-22T01:40:33.420Z,54.18
2019-04-22T01:41:35.834Z,55.92
2019-04-22T01:42:33.850Z,55.41
2019-04-22T01:43:33.141Z,54.51
2019-04-22T01:44:33.268Z,56.35
2019-04-22T01:45:36.405Z,57.20
2019-04-22T01:46:32.079Z,57.31
2019-04-22T01:47:31.294Z,58.15
2019-04-22T01:48:32.975Z,59.20
2019-04-22T01:50:30.692Z,60.36
2019-04-22T01:51:44.047Z,59.85
2019-04-22T01:52:30.951Z,59.64
2019-04-22T01:53:33.497Z,59.67
2019-04-22T01:54:35.140Z,60.80
2019-04-22T01:55:35.744Z,60.29
2019-04-22T01:56:24.200Z,58.95
2019-04-22T01:57:31.714Z,60.49
2019-04-22T01:58:23.768Z,59.16
2019-04-22T01:59:19.887Z,59.77
2019-04-22T02:00:27.233Z,59.64
2019-04-22T02:01:34.968Z,58.92
2019-04-22T02:02:30.890Z,59.34
2019-04-22T02:03:36.069Z,58.92
2019-04-22T02:04:47.092Z,59.34
2019-04-22T02:05:29.033Z,59.54
2019-04-22T02:06:35.170Z,59.34
2019-04-22T02:07:29.432Z,59.54
2019-04-22T02:08:37.927Z,59.13
2019-04-22T02:09:47.494Z,59.64
2019-04-22T02:10:34.788Z,59.54
2019-04-22T02:11:32.564Z,59.85
2019-04-22T02:12:33.303Z,59.47
2019-04-22T02:13:32.142Z,60.36
2019-04-22T02:14:37.475Z,60.39
2019-04-22T02:15:34.592Z,61.32
2019-04-22T02:16:36.210Z,62.27
2019-04-22T02:17:33.301Z,61.04
2019-04-22T02:18:36.246Z,61.55
2019-04-22T02:19:48.478Z,61.65
2019-04-22T02:20:32.653Z,60.31
2019-04-22T02:21:34.279Z,61.14
2019-04-22T02:22:42.943Z,60.73
2019-04-22T02:24:33.404Z,61.55
2019-04-22T02:25:38.442Z,62.19
2019-04-22T02:26:38.238Z,61.27
2019-04-22T02:27:35.319Z,61.68
2019-04-22T02:29:42.505Z,61.37
2019-04-22T02:30:37.027Z,61.55
2019-04-22T02:32:49.489Z,61.44
2019-04-22T02:35:52.158Z,61.00
2019-04-22T02:37:30.107Z,60.39
2019-04-22T02:39:34.507Z,59.36
2019-04-22T02:40:46.152Z,59.88
2019-04-22T02:42:24.178Z,59.98
2019-04-22T02:45:39.409Z,59.85
2019-04-22T02:46:43.041Z,58.41
2019-04-22T02:47:31.032Z,58.07
2019-04-22T02:48:55.335Z,59.31
2019-04-22T02:49:45.390Z,58.49
2019-04-22T02:50:30.607Z,59.34
2019-04-22T02:51:32.584Z,59.95
2019-04-22T02:52:45.386Z,58.90
2019-04-22T02:55:34.858Z,59.85
2019-04-22T02:57:35.770Z,60.60
2019-04-22T02:58:49.994Z,61.11
2019-04-22T02:59:34.549Z,60.80
2019-04-22T03:00:40.195Z,60.80
2019-04-22T03:01:39.661Z,60.08
2019-04-22T03:02:48.819Z,59.85
2019-04-22T03:04:41.584Z,59.54
2019-04-22T03:05:48.914Z,60.16
2019-04-22T03:07:37.699Z,59.23
2019-04-22T03:09:30.980Z,60.47
2019-04-22T03:10:47.272Z,59.54
2019-04-22T03:11:33.474Z,60.16
2019-04-22T03:12:28.797Z,60.47
2019-04-22T03:14:30.260Z,60.49
2019-04-22T03:14:37.132Z,60.60
2019-04-22T03:15:50.869Z,60.80
2019-04-22T03:18:47.222Z,61.65
2019-04-22T03:19:47.868Z,60.73
2019-04-22T03:20:33.549Z,61.00
2019-04-22T03:21:31.903Z,61.04
2019-04-22T03:23:45.512Z,61.42
2019-04-22T03:24:35.802Z,61.32
2019-04-22T03:26:50.447Z,61.21
2019-04-22T03:27:42.824Z,61.35
2019-04-22T03:28:37.221Z,61.35
2019-04-22T03:29:46.667Z,61.35
2019-04-22T03:32:09.163Z,61.76
2019-04-22T03:33:43.987Z,61.86
2019-04-22T03:35:41.785Z,61.44
2019-04-22T03:37:07.073Z,62.37
2019-04-22T03:37:43.529Z,62.16
2019-04-22T03:39:01.234Z,61.79
2019-04-22T03:39:45.557Z,61.86
2019-04-22T03:40:42.044Z,61.44
2019-04-22T03:41:54.476Z,61.11
2019-04-22T03:42:32.057Z,61.11
2019-04-22T03:43:42.518Z,60.77
2019-04-22T03:46:41.883Z,60.70
2019-04-22T03:47:38.268Z,60.80
2019-04-22T03:48:38.168Z,60.91
2019-04-22T03:49:52.090Z,61.42
2019-04-22T03:52:03.121Z,60.77
2019-04-22T03:52:27.010Z,60.26
2019-04-22T03:53:33.533Z,61.08
2019-04-22T03:54:39.923Z,60.67
2019-04-22T03:55:28.968Z,60.77
2019-04-22T03:57:10.511Z,60.57
2019-04-22T03:57:49.635Z,59.85
2019-04-22T03:58:45.464Z,60.57
2019-04-22T04:00:49.671Z,59.92
2019-04-22T04:02:38.883Z,60.57
2019-04-22T04:03:29.022Z,60.36
2019-04-22T04:04:36.903Z,60.05
2019-04-22T04:05:49.626Z,59.75
2019-04-22T04:06:50.939Z,60.67
2019-04-22T04:08:33.609Z,60.57
2019-04-22T04:09:45.635Z,60.67
2019-04-22T04:11:43.288Z,60.67
2019-04-22T04:12:37.757Z,60.88
2019-04-22T04:13:34.069Z,60.98
2019-04-22T04:14:35.917Z,60.98
2019-04-22T04:15:30.000Z,61.18
2019-04-22T04:16:39.600Z,60.57
2019-04-22T04:17:36.970Z,60.98
2019-04-22T04:18:41.101Z,60.85
2019-04-22T04:24:03.367Z,61.08
2019-04-22T04:24:57.945Z,60.57
2019-04-22T04:26:51.121Z,60.57
2019-04-22T04:29:48.827Z,61.29
2019-04-22T04:30:33.953Z,61.49
2019-04-22T04:31:44.281Z,60.95
2019-04-22T04:32:41.622Z,61.39
2019-04-22T04:33:38.833Z,60.16
2019-04-22T04:34:54.301Z,61.18
2019-04-22T04:35:44.146Z,60.57
2019-04-22T04:36:34.721Z,61.16
2019-04-22T04:38:42.906Z,61.36
2019-04-22T04:39:51.173Z,60.23
2019-04-22T04:40:35.028Z,61.67
2019-04-22T04:41:58.851Z,61.26
2019-04-22T04:42:43.066Z,60.77
2019-04-22T04:43:50.204Z,61.26
2019-04-22T04:44:52.230Z,61.46
2019-04-22T04:48:42.345Z,59.77
2019-04-22T04:51:56.000Z,59.12
2019-04-22T04:53:29.316Z,58.69
2019-04-22T04:54:37.616Z,59.48
2019-04-22T04:55:46.304Z,59.09
2019-04-22T04:56:36.390Z,58.25
2019-04-22T04:57:52.432Z,58.15
2019-04-22T04:59:50.788Z,58.12
2019-04-22T05:01:39.777Z,57.81
2019-04-22T05:04:46.523Z,57.28
2019-04-22T05:05:31.490Z,57.48
2019-04-22T05:07:44.225Z,56.56
2019-04-22T05:08:52.127Z,56.33
2019-04-22T05:09:26.405Z,57.04
2019-04-22T05:12:45.881Z,56.10
2019-04-22T05:13:39.605Z,56.20
2019-04-22T05:14:52.567Z,56.40
2019-04-22T05:15:29.738Z,55.58
2019-04-22T05:16:47.970Z,56.30
2019-04-22T05:17:35.825Z,56.20
2019-04-22T05:19:47.287Z,56.51
2019-04-22T05:21:48.125Z,55.23
2019-04-22T05:23:30.033Z,53.77
2019-04-22T05:24:31.396Z,53.96
2019-04-22T05:25:27.255Z,53.85
2019-04-22T05:26:37.629Z,53.44
2019-04-22T05:28:42.259Z,53.62
2019-04-22T05:30:00.154Z,54.03
2019-04-22T05:30:32.634Z,53.55
2019-04-22T05:31:33.988Z,54.03
2019-04-22T05:32:30.703Z,53.83
2019-04-22T05:33:28.874Z,53.39
2019-04-22T05:34:28.016Z,52.15
2019-04-22T05:35:26.598Z,52.45
2019-04-22T05:36:28.334Z,51.84
2019-04-22T05:37:30.999Z,52.35
2019-04-22T05:38:36.319Z,51.31
2019-04-22T05:39:24.210Z,52.33
2019-04-22T05:40:34.631Z,52.35
2019-04-22T05:41:28.995Z,51.92
2019-04-22T05:42:26.390Z,53.16
2019-04-22T05:43:29.410Z,52.37
2019-04-22T05:44:32.925Z,52.35
2019-04-22T05:45:38.638Z,52.73
2019-04-22T05:46:30.958Z,52.73
2019-04-22T05:47:26.089Z,52.73
2019-04-22T05:48:37.280Z,51.28
2019-04-22T05:49:25.155Z,51.61
2019-04-22T05:50:24.555Z,51.28
2019-04-22T05:51:31.467Z,51.06
2019-04-22T05:52:24.943Z,51.51
2019-04-22T05:53:25.452Z,51.94
2019-04-22T05:54:31.691Z,52.61
2019-04-22T05:55:33.281Z,51.87
2019-04-22T05:56:34.251Z,50.62
2019-04-22T05:57:24.386Z,50.73
2019-04-22T05:58:36.416Z,50.20
2019-04-22T05:59:32.874Z,50.81
2019-04-22T06:01:04.258Z,50.62
2019-04-22T06:01:38.607Z,49.91
2019-04-22T06:02:43.060Z,51.44
2019-04-22T06:03:35.289Z,50.50
2019-04-22T06:04:25.531Z,48.97
2019-04-22T06:05:31.937Z,49.99
2019-04-22T06:06:22.735Z,50.40
2019-04-22T06:07:26.406Z,51.23
2019-04-22T06:08:23.255Z,50.93
2019-04-22T06:09:30.720Z,52.15
2019-04-22T06:10:34.428Z,50.83
2019-04-22T06:11:29.536Z,50.60
2019-04-22T06:12:23.473Z,50.29
2019-04-22T06:13:23.578Z,51.01
2019-04-22T06:14:24.891Z,50.68
2019-04-22T06:15:24.263Z,48.80
2019-04-22T06:16:31.022Z,49.23
2019-04-22T06:17:31.700Z,49.11
2019-04-22T06:18:27.191Z,49.01
2019-04-22T06:19:25.413Z,49.33
2019-04-22T06:20:25.595Z,50.53
2019-04-22T06:21:28.080Z,49.01
2019-04-22T06:23:34.643Z,47.87
2019-04-22T06:24:49.118Z,49.13
2019-04-22T06:25:39.488Z,50.68
2019-04-22T06:27:28.742Z,49.39
2019-04-22T06:28:36.988Z,49.21
2019-04-22T06:29:26.661Z,49.41
2019-04-22T06:30:43.183Z,50.31
2019-04-22T06:31:32.394Z,50.84
2019-04-22T06:33:27.180Z,50.10
2019-04-22T06:34:30.839Z,49.19
2019-04-22T06:36:29.482Z,48.03
2019-04-22T06:37:26.102Z,47.39
2019-04-22T06:38:39.178Z,47.47
2019-04-22T06:39:38.263Z,46.97
2019-04-22T06:40:27.545Z,47.47
2019-04-22T06:41:29.886Z,47.19
2019-04-22T06:42:28.397Z,48.83
2019-04-22T06:43:29.627Z,46.89
2019-04-22T06:46:28.882Z,46.79
2019-04-22T06:47:47.342Z,47.30
2019-04-22T06:48:30.047Z,46.64
2019-04-22T06:49:33.233Z,47.15
2019-04-22T06:50:34.029Z,46.04
2019-04-22T06:51:26.947Z,46.95
2019-04-22T06:52:22.880Z,46.54
2019-04-22T06:53:29.799Z,46.75
2019-04-22T06:54:35.122Z,45.81
2019-04-22T06:55:29.799Z,46.12
2019-04-22T06:56:22.036Z,46.70
2019-04-22T06:57:25.359Z,46.37
2019-04-22T06:58:22.915Z,45.87
2019-04-22T06:59:24.920Z,45.39
2019-04-22T07:00:42.899Z,45.14
2019-04-22T07:02:33.315Z,46.28
2019-04-22T07:04:22.721Z,44.34
2019-04-22T07:05:27.564Z,44.64
2019-04-22T07:06:35.435Z,44.64
2019-04-22T07:07:25.251Z,46.07
2019-04-22T07:09:02.338Z,46.37
2019-04-22T07:10:35.164Z,47.11
2019-04-22T07:11:23.693Z,46.40
2019-04-22T07:13:27.368Z,44.59
2019-04-22T07:14:23.828Z,45.30
2019-04-22T07:15:44.225Z,43.91
2019-04-22T07:17:38.015Z,44.87
2019-04-22T07:18:31.184Z,42.64
2019-04-22T07:19:31.888Z,41.75
2019-04-22T07:21:25.766Z,42.46
2019-04-22T07:22:29.290Z,41.93
2019-04-22T07:24:41.834Z,43.26
2019-04-22T07:25:23.575Z,42.47
2019-04-22T07:26:31.956Z,43.32
2019-04-22T07:27:40.426Z,44.13
2019-04-22T07:28:39.376Z,44.39
2019-04-22T07:29:29.771Z,42.25
2019-04-22T07:30:26.282Z,42.44
2019-04-22T07:32:40.054Z,41.63
2019-04-22T07:34:27.661Z,42.10
2019-04-22T07:35:28.855Z,41.00
2019-04-22T07:37:34.308Z,42.82
2019-04-22T07:39:39.227Z,41.47
2019-04-22T07:40:26.993Z,40.18
2019-04-22T07:41:27.370Z,41.06
2019-04-22T07:42:28.174Z,41.45
2019-04-22T07:45:25.061Z,39.70
2019-04-22T07:46:26.622Z,39.50
2019-04-22T07:48:35.676Z,39.86
2019-04-22T07:49:33.594Z,40.04
2019-04-22T07:50:37.833Z,42.15
2019-04-22T07:51:27.069Z,41.67
2019-04-22T07:52:16.028Z,40.83
2019-04-22T07:53:22.957Z,40.11
2019-04-22T07:54:28.022Z,39.18
2019-04-22T07:55:18.358Z,39.47
2019-04-22T07:56:24.585Z,39.10
2019-04-22T07:57:28.710Z,39.20
2019-04-22T07:58:29.025Z,39.30
2019-04-22T07:59:43.720Z,40.02
2019-04-22T08:00:32.266Z,39.30
2019-04-22T08:01:26.918Z,38.49
2019-04-22T08:02:26.128Z,39.48
2019-04-22T08:03:30.847Z,39.16
2019-04-22T08:04:36.200Z,38.14
2019-04-22T08:05:29.941Z,37.62
2019-04-22T08:06:26.775Z,40.23
2019-04-22T08:08:26.044Z,39.32
2019-04-22T08:09:32.935Z,39.69
2019-04-22T08:10:31.403Z,38.67
2019-04-22T08:11:43.738Z,37.66
2019-04-22T08:12:31.834Z,36.87
2019-04-22T08:13:24.793Z,36.60
2019-04-22T08:14:32.888Z,36.52
2019-04-22T08:15:31.134Z,37.20
2019-04-22T08:16:26.375Z,37.38
2019-04-22T08:18:27.587Z,37.08
2019-04-22T08:20:28.897Z,38.39
2019-04-22T08:21:23.764Z,37.59
2019-04-22T08:22:20.987Z,37.77
2019-04-22T08:24:29.346Z,36.75
2019-04-22T08:25:26.555Z,34.84
2019-04-22T08:26:30.349Z,37.16
2019-04-22T08:27:22.581Z,36.44
2019-04-22T08:29:43.809Z,36.43
2019-04-22T08:30:28.327Z,35.51
2019-04-22T08:31:28.289Z,36.73
2019-04-22T08:32:28.007Z,35.93
2019-04-22T08:33:29.311Z,35.73
2019-04-22T08:34:27.537Z,36.26
2019-04-22T08:35:29.758Z,36.83
2019-04-22T08:36:26.023Z,36.35
2019-04-22T08:38:37.611Z,36.33
2019-04-22T08:39:25.250Z,35.80
2019-04-22T08:40:28.792Z,35.68
2019-04-22T08:41:31.879Z,37.06
2019-04-22T08:42:35.439Z,36.79
2019-04-22T08:43:32.645Z,35.89
2019-04-22T08:44:39.018Z,35.48
2019-04-22T08:45:33.397Z,36.41
2019-04-22T08:46:33.571Z,35.88
2019-04-22T08:48:24.860Z,33.86
2019-04-22T08:49:21.776Z,35.49
2019-04-22T08:50:31.226Z,35.80
2019-04-22T08:51:25.438Z,34.50
2019-04-22T08:52:27.531Z,35.39
2019-04-22T08:53:28.181Z,37.01
2019-04-22T08:54:25.977Z,35.91
2019-04-22T08:55:29.601Z,35.71
2019-04-22T08:56:43.980Z,36.21
2019-04-22T08:57:40.831Z,35.91
2019-04-22T08:59:21.789Z,36.81
2019-04-22T09:00:34.364Z,36.16
2019-04-22T09:02:25.781Z,34.46
2019-04-22T09:03:32.680Z,34.86
2019-04-22T09:04:20.887Z,35.68
2019-04-22T09:05:42.335Z,35.26
2019-04-22T09:07:39.181Z,33.95
2019-04-22T09:08:26.732Z,35.23
2019-04-22T09:09:27.033Z,33.96
2019-04-22T09:10:24.459Z,33.96
2019-04-22T09:11:26.705Z,35.44
2019-04-22T09:12:37.046Z,34.53
2019-04-22T09:13:30.066Z,33.63
2019-04-22T09:14:32.519Z,34.43
2019-04-22T09:15:29.813Z,33.91
2019-04-22T09:16:32.098Z,34.53
2019-04-22T09:17:34.863Z,32.92
2019-04-22T09:18:28.766Z,35.11
2019-04-22T09:19:22.427Z,32.22
2019-04-22T09:20:26.033Z,32.33
2019-04-22T09:21:38.892Z,34.53
2019-04-22T09:22:21.823Z,32.92
2019-04-22T09:24:23.364Z,33.56
2019-04-22T09:25:24.076Z,34.25
2019-04-22T09:26:30.774Z,33.72
2019-04-22T09:28:24.386Z,31.90
2019-04-22T09:29:28.831Z,33.78
2019-04-22T09:30:27.473Z,34.09
2019-04-22T09:31:23.995Z,32.42
2019-04-22T09:32:26.412Z,34.30
2019-04-22T09:33:27.540Z,32.60
2019-04-22T09:34:23.451Z,32.17
2019-04-22T09:35:25.204Z,32.87
2019-04-22T09:36:40.802Z,31.86
2019-04-22T09:37:29.015Z,30.68
2019-04-22T09:38:31.450Z,34.38
2019-04-22T09:39:30.234Z,31.69
2019-04-22T09:40:21.768Z,32.70
2019-04-22T09:41:27.124Z,32.48
2019-04-22T09:42:24.629Z,33.38
2019-04-22T09:43:32.205Z,32.00
2019-04-22T09:44:21.743Z,33.47
2019-04-22T09:45:22.932Z,32.00
2019-04-22T09:46:28.317Z,32.70
2019-04-22T09:47:24.900Z,34.21
2019-04-22T09:48:33.650Z,33.23
2019-04-22T09:49:26.707Z,32.73
2019-04-22T09:50:30.609Z,33.72
2019-04-22T09:51:25.280Z,32.70
2019-04-22T09:52:20.575Z,30.28
2019-04-22T09:53:22.514Z,32.39
2019-04-22T09:54:30.805Z,31.97
2019-04-22T09:55:26.631Z,31.19
2019-04-22T09:56:23.846Z,31.69
2019-04-22T09:57:24.434Z,31.89
2019-04-22T09:58:29.581Z,32.06
2019-04-22T09:59:25.162Z,31.97
2019-04-22T10:00:25.489Z,31.57
2019-04-22T10:02:38.972Z,31.40
2019-04-22T10:03:19.558Z,32.22
2019-04-22T10:04:21.804Z,32.22
2019-04-22T10:05:28.522Z,32.55
2019-04-22T10:06:29.430Z,33.63
2019-04-22T10:07:27.219Z,33.07
2019-04-22T10:08:38.376Z,32.47
2019-04-22T10:10:21.885Z,30.88
2019-04-22T10:12:29.815Z,31.89
2019-04-22T10:13:29.730Z,31.89
2019-04-22T10:14:28.958Z,31.92
2019-04-22T10:16:37.459Z,32.30
2019-04-22T10:18:29.202Z,32.30
2019-04-22T10:19:26.340Z,31.51
2019-04-22T10:20:27.096Z,32.10
2019-04-22T10:21:35.298Z,35.28
2019-04-22T10:22:27.569Z,31.77
2019-04-22T10:23:25.198Z,32.67
2019-04-22T10:24:19.135Z,31.09
2019-04-22T10:25:25.235Z,32.20
2019-04-22T10:26:31.817Z,30.51
2019-04-22T10:27:24.351Z,32.27
2019-04-22T10:28:24.845Z,31.19
2019-04-22T10:29:24.809Z,31.27
2019-04-22T10:30:33.818Z,31.07
2019-04-22T10:31:29.428Z,32.04
2019-04-22T10:32:27.859Z,31.56
2019-04-22T10:33:15.818Z,33.48
2019-04-22T10:34:11.572Z,31.16
2019-04-22T10:35:03.080Z,32.14
2019-04-22T10:35:59.360Z,31.66
2019-04-22T10:37:02.190Z,31.05
2019-04-22T10:37:58.554Z,30.46
2019-04-22T10:38:58.205Z,31.06
2019-04-22T10:40:00.966Z,31.06
2019-04-22T10:40:58.660Z,31.56
2019-04-22T10:41:57.249Z,31.07
2019-04-22T10:42:57.268Z,30.86
2019-04-22T10:43:57.225Z,32.44
2019-04-22T10:44:57.347Z,31.94
2019-04-22T10:45:57.831Z,31.66
2019-04-22T10:46:58.071Z,31.36
2019-04-22T10:47:58.346Z,31.27
2019-04-22T10:48:57.956Z,30.66
2019-04-22T10:49:58.264Z,32.04
2019-04-22T10:50:57.155Z,30.13
2019-04-22T10:51:58.383Z,30.96
2019-04-22T10:52:57.455Z,30.45
2019-04-22T10:53:57.620Z,31.03
2019-04-22T10:54:57.114Z,29.84
2019-04-22T10:55:57.101Z,30.30
2019-04-22T10:56:57.093Z,30.33
2019-04-22T10:57:57.092Z,30.83
2019-04-22T10:58:58.355Z,30.73
2019-04-22T10:59:58.275Z,30.85
2019-04-22T11:00:58.213Z,31.66
2019-04-22T11:01:57.035Z,30.56
2019-04-22T11:02:57.968Z,31.33
2019-04-22T11:03:57.213Z,29.67
2019-04-22T11:04:58.461Z,29.16
2019-04-22T11:05:57.195Z,29.93
2019-04-22T11:07:01.968Z,32.03
2019-04-22T11:08:03.127Z,30.52
2019-04-22T11:09:01.759Z,30.70
2019-04-22T11:10:17.538Z,29.93
2019-04-22T11:11:10.893Z,29.84
2019-04-22T11:12:04.521Z,30.15
2019-04-22T11:12:59.030Z,30.13
2019-04-22T11:13:58.066Z,28.56
2019-04-22T11:14:58.180Z,29.16
2019-04-22T11:15:58.284Z,29.54
2019-04-22T11:16:59.780Z,29.52
2019-04-22T11:17:57.719Z,28.81
2019-04-22T11:18:56.857Z,29.24
2019-04-22T11:19:57.508Z,29.04
2019-04-22T11:20:57.803Z,30.30
2019-04-22T11:22:06.329Z,29.21
2019-04-22T11:22:58.495Z,28.62
2019-04-22T11:23:56.812Z,27.00
2019-04-22T11:24:59.905Z,27.98
2019-04-22T11:25:57.619Z,28.60
2019-04-22T11:26:57.100Z,30.29
2019-04-22T11:27:57.802Z,28.63
2019-04-22T11:28:56.753Z,28.52
2019-04-22T11:29:57.378Z,28.62
2019-04-22T11:30:56.731Z,27.23
2019-04-22T11:31:56.727Z,27.54
2019-04-22T11:32:58.283Z,28.91
2019-04-22T11:33:56.744Z,28.38
2019-04-22T11:34:57.984Z,27.08
2019-04-22T11:35:57.571Z,26.68
2019-04-22T11:36:56.912Z,26.86
2019-04-22T11:37:56.884Z,27.57
2019-04-22T11:39:01.990Z,26.93
2019-04-22T11:40:10.052Z,29.14
2019-04-22T11:40:59.434Z,28.23
2019-04-22T11:41:58.289Z,29.33
2019-04-22T11:42:56.631Z,27.24
2019-04-22T11:43:56.963Z,26.65
2019-04-22T11:44:57.152Z,27.65
2019-04-22T11:45:57.484Z,26.23
2019-04-22T11:46:57.212Z,25.76
2019-04-22T11:47:57.247Z,25.54
2019-04-22T11:48:57.857Z,24.15
2019-04-22T11:49:57.748Z,27.23
2019-04-22T11:50:57.768Z,26.99
2019-04-22T11:51:56.517Z,26.50
2019-04-22T11:52:56.501Z,25.31
2019-04-22T11:53:56.761Z,27.31
2019-04-22T11:54:56.983Z,26.33
2019-04-22T11:55:56.475Z,25.43
2019-04-22T11:56:56.866Z,26.86
2019-04-22T11:57:56.459Z,25.55
2019-04-22T11:58:57.085Z,25.65
2019-04-22T11:59:56.606Z,25.65
2019-04-22T12:00:57.051Z,25.93
2019-04-22T12:01:57.054Z,25.62
2019-04-22T12:02:56.743Z,26.80
2019-04-22T12:03:57.818Z,27.98
2019-04-22T12:04:56.375Z,26.69
2019-04-22T12:05:57.703Z,27.08
2019-04-22T12:06:57.877Z,25.99
2019-04-22T12:07:57.315Z,27.40
2019-04-22T12:08:57.556Z,26.42
2019-04-22T12:09:57.493Z,27.35
2019-04-22T12:11:00.071Z,27.24
2019-04-22T12:11:58.056Z,28.60
2019-04-22T12:12:57.668Z,24.04
2019-04-22T12:13:56.302Z,24.75
2019-04-22T12:14:56.437Z,26.75
2019-04-22T12:15:56.264Z,26.65
2019-04-22T12:16:57.314Z,26.16
2019-04-22T12:17:57.343Z,25.65
2019-04-22T12:18:58.469Z,27.01
2019-04-22T12:19:56.222Z,25.99
2019-04-22T12:20:57.095Z,25.72
2019-04-22T12:21:57.185Z,25.82
2019-04-22T12:22:56.768Z,26.62
2019-04-22T12:23:56.905Z,25.63
2019-04-22T12:24:56.582Z,24.74
2019-04-22T12:26:03.478Z,24.76
2019-04-22T12:26:58.049Z,24.26
2019-04-22T12:27:56.982Z,23.37
2019-04-22T12:28:57.246Z,24.27
2019-04-22T12:29:56.758Z,25.06
2019-04-22T12:30:57.311Z,25.36
2019-04-22T12:31:57.669Z,23.93
2019-04-22T12:32:56.081Z,21.96
2019-04-22T12:33:57.324Z,23.57
2019-04-22T12:34:57.464Z,24.98
2019-04-22T12:35:56.842Z,25.76
2019-04-22T12:36:56.360Z,25.44
2019-04-22T12:38:02.504Z,23.75
2019-04-22T12:38:57.792Z,23.36
2019-04-22T12:39:56.595Z,23.87
2019-04-22T12:41:00.667Z,20.87
2019-04-22T12:41:58.275Z,22.16
2019-04-22T12:42:57.522Z,23.15
2019-04-22T12:43:55.994Z,24.15
2019-04-22T12:44:56.045Z,24.66
2019-04-22T12:45:56.308Z,25.96
2019-04-22T12:46:56.441Z,23.67
2019-04-22T12:47:56.066Z,24.46
2019-04-22T12:48:56.279Z,23.75
2019-04-22T12:50:06.857Z,24.15
2019-04-22T12:50:58.530Z,24.83
2019-04-22T12:51:57.087Z,23.93
2019-04-22T12:53:01.287Z,23.32
2019-04-22T12:53:57.175Z,24.13
2019-04-22T12:54:57.273Z,23.35
2019-04-22T12:55:57.435Z,24.64
2019-04-22T12:56:55.831Z,25.34
2019-04-22T12:57:58.658Z,27.33
2019-04-22T12:58:55.994Z,25.31
2019-04-22T12:59:55.824Z,24.80
2019-04-22T13:00:57.060Z,23.33
2019-04-22T13:01:56.948Z,25.13
2019-04-22T13:02:56.835Z,25.51
2019-04-22T13:04:02.055Z,23.54
2019-04-22T13:04:57.933Z,24.33
2019-04-22T13:05:55.924Z,22.33
2019-04-22T13:06:55.732Z,23.15
2019-04-22T13:07:55.829Z,23.87
2019-04-22T13:08:56.592Z,23.66
2019-04-22T13:09:57.037Z,23.65
2019-04-22T13:11:04.158Z,24.44
2019-04-22T13:11:57.176Z,24.46
2019-04-22T13:12:57.026Z,23.86
2019-04-22T13:13:56.777Z,24.24
2019-04-22T13:14:57.116Z,24.12
2019-04-22T13:15:57.017Z,23.63
2019-04-22T13:16:55.635Z,22.73
2019-04-22T13:18:06.001Z,24.63
2019-04-22T13:19:02.183Z,24.94
2019-04-22T13:19:56.613Z,24.16
2019-04-22T13:20:56.747Z,23.44
2019-04-22T13:21:56.601Z,23.47
2019-04-22T13:22:56.835Z,22.37
2019-04-22T13:23:56.786Z,22.77
2019-04-22T13:24:55.565Z,24.87
2019-04-22T13:25:56.743Z,24.34
2019-04-22T13:26:56.827Z,24.85
2019-04-22T13:27:55.517Z,24.83
2019-04-22T13:28:56.955Z,23.83
2019-04-22T13:29:55.509Z,23.43
2019-04-22T13:30:58.426Z,22.92
2019-04-22T13:31:55.475Z,23.45
2019-04-22T13:32:56.631Z,23.46
2019-04-22T13:33:58.048Z,22.64
2019-04-22T13:34:59.947Z,23.54
2019-04-22T13:35:57.539Z,25.70
2019-04-22T13:36:56.501Z,23.44
2019-04-22T13:37:55.416Z,23.36
2019-04-22T13:38:55.406Z,24.44
2019-04-22T13:39:56.839Z,24.05
2019-04-22T13:41:09.747Z,24.76
2019-04-22T13:42:02.270Z,24.96
2019-04-22T13:42:56.355Z,24.24
2019-04-22T13:43:56.066Z,24.05
2019-04-22T13:44:55.918Z,24.76
2019-04-22T13:45:56.166Z,26.06
2019-04-22T13:47:17.449Z,25.05
2019-04-22T13:48:11.144Z,24.75
2019-04-22T13:49:27.114Z,24.75
2019-04-22T13:52:35.685Z,26.93
2019-04-22T13:53:42.576Z,25.63
2019-04-22T13:55:25.461Z,25.35
2019-04-22T13:56:12.505Z,25.97
2019-04-22T13:57:18.366Z,25.85
2019-04-22T13:58:08.459Z,25.05
2019-04-22T13:59:07.272Z,25.74
2019-04-22T13:59:59.829Z,25.66
2019-04-22T14:00:56.435Z,25.77
2019-04-22T14:01:56.458Z,26.06
2019-04-22T14:02:55.150Z,27.06
2019-04-22T14:03:56.594Z,26.65
2019-04-22T14:04:55.159Z,25.76
2019-04-22T14:05:55.177Z,25.76
2019-04-22T14:06:56.606Z,25.56
2019-04-22T14:07:57.118Z,25.38
2019-04-22T14:08:55.680Z,25.57
2019-04-22T14:09:56.073Z,26.03
2019-04-22T14:10:56.703Z,24.85
2019-04-22T14:12:00.095Z,27.55
2019-04-22T14:12:57.035Z,24.17
2019-04-22T14:13:56.606Z,25.57
2019-04-22T14:14:56.358Z,25.48
2019-04-22T14:15:56.975Z,26.28
2019-04-22T14:16:55.222Z,26.59
2019-04-22T14:17:54.992Z,25.97
2019-04-22T14:18:55.993Z,25.86
2019-04-22T14:19:55.085Z,26.07
2019-04-22T14:20:56.610Z,25.68
2019-04-22T14:21:55.652Z,25.38
2019-04-22T14:22:54.935Z,26.88
2019-04-22T14:23:56.358Z,26.48
2019-04-22T14:24:54.913Z,27.58
2019-04-22T14:25:54.927Z,25.68
2019-04-22T14:27:08.579Z,25.48
2019-04-22T14:28:01.937Z,25.98
2019-04-22T14:28:55.920Z,26.65
2019-04-22T14:29:55.632Z,26.95
2019-04-22T14:30:54.867Z,25.48